createdAt,value
2018-08-24T00:00:42.853Z,98983.72
2018-08-24T00:03:11.417Z,98983.56
2018-08-24T00:05:39.937Z,98985.75
2018-08-24T00:08:08.520Z,98989.10
2018-08-24T00:10:37.142Z,98983.70
2018-08-24T00:13:05.992Z,98979.09
2018-08-24T00:15:34.521Z,98989.34
2018-08-24T00:18:03.096Z,98987.23
2018-08-24T00:20:31.652Z,98984.64
2018-08-24T00:23:00.627Z,98979.28
2018-08-24T00:25:29.151Z,98963.98
2018-08-24T00:27:57.709Z,98966.78
2018-08-24T00:30:26.234Z,98970.69
2018-08-24T00:32:54.910Z,98967.73
2018-08-24T00:35:23.476Z,98963.17
2018-08-24T00:37:52.189Z,98958.43
2018-08-24T00:40:27.680Z,98958.97
2018-08-24T00:42:56.454Z,98963.78
2018-08-24T00:45:25.041Z,98967.75
2018-08-24T00:47:53.580Z,98971.41
2018-08-24T00:50:22.142Z,98967.02
2018-08-24T00:52:50.775Z,98962.22
2018-08-24T00:55:19.319Z,98971.25
2018-08-24T00:57:48.366Z,98956.29
2018-08-24T01:00:16.908Z,98959.93
2018-08-24T01:02:45.458Z,98967.35
2018-08-24T01:05:13.977Z,98960.45
2018-08-24T01:07:48.484Z,98967.89
2018-08-24T01:10:22.556Z,98966.72
2018-08-24T01:12:56.686Z,98965.73
2018-08-24T01:15:25.373Z,98960.25
2018-08-24T01:19:04.973Z,98960.43
2018-08-24T01:21:33.800Z,98955.31
2018-08-24T01:24:02.337Z,98949.30
2018-08-24T01:26:36.315Z,98959.16
2018-08-24T01:29:10.872Z,98952.78
2018-08-24T01:31:41.903Z,98952.99
2018-08-24T01:34:17.327Z,98950.19
2018-08-24T01:36:46.442Z,98949.98
2018-08-24T01:39:15.004Z,98948.71
2018-08-24T01:41:43.496Z,98947.11
2018-08-24T01:44:12.061Z,98943.73
2018-08-24T01:46:40.597Z,98944.97
2018-08-24T01:49:09.153Z,98951.17
2018-08-24T01:51:37.689Z,98950.36
2018-08-24T01:54:06.324Z,98948.27
2018-08-24T01:56:34.858Z,98947.13
2018-08-24T01:59:03.462Z,98945.05
2018-08-24T02:01:31.969Z,98953.02
2018-08-24T02:04:01.025Z,98946.45
2018-08-24T02:06:29.668Z,98951.15
2018-08-24T02:08:58.262Z,98942.05
2018-08-24T02:11:33.330Z,98944.13
2018-08-24T02:14:07.226Z,98944.72
2018-08-24T02:16:37.372Z,98951.15
2018-08-24T02:19:11.232Z,98947.95
2018-08-24T02:21:44.983Z,98950.88
2018-08-24T02:24:13.914Z,98951.11
2018-08-24T02:26:43.372Z,98947.02
2018-08-24T02:29:11.936Z,98954.77
2018-08-24T02:31:45.820Z,98942.94
2018-08-24T02:34:15.064Z,98949.97
2018-08-24T02:36:43.955Z,98940.95
2018-08-24T02:39:14.422Z,98948.95
2018-08-24T02:41:43.113Z,98948.72
2018-08-24T02:44:12.058Z,98947.59
2018-08-24T02:46:41.600Z,98954.14
2018-08-24T02:49:10.348Z,98956.72
2018-08-24T02:51:38.910Z,98952.41
2018-08-24T02:54:07.520Z,98959.24
2018-08-24T02:56:36.096Z,98961.22
2018-08-24T02:59:04.691Z,98958.59
2018-08-24T03:01:33.278Z,98959.17
2018-08-24T03:04:02.189Z,98961.11
2018-08-24T03:06:31.262Z,98963.14
2018-08-24T03:08:59.796Z,98951.61
2018-08-24T03:11:28.551Z,98950.57
2018-08-24T03:13:57.131Z,98946.30
2018-08-24T03:16:25.799Z,98946.91
2018-08-24T03:18:54.365Z,98948.41
2018-08-24T03:21:22.929Z,98946.95
2018-08-24T03:23:51.496Z,98952.89
2018-08-24T03:26:20.067Z,98952.89
2018-08-24T03:28:48.600Z,98953.22
2018-08-24T03:31:17.173Z,98958.06
2018-08-24T03:33:45.701Z,98957.56
2018-08-24T03:36:14.260Z,98953.48
2018-08-24T03:38:42.791Z,98947.98
2018-08-24T03:41:11.343Z,98945.33
2018-08-24T03:43:40.017Z,98943.09
2018-08-24T03:46:08.588Z,98937.92
2018-08-24T03:48:37.129Z,98932.24
2018-08-24T03:51:05.713Z,98920.93
2018-08-24T03:53:34.262Z,98945.52
2018-08-24T03:56:02.832Z,98951.14
2018-08-24T03:58:31.368Z,98945.59
2018-08-24T04:01:00.008Z,98947.23
2018-08-24T04:03:29.481Z,98953.86
2018-08-24T04:05:58.081Z,98959.11
2018-08-24T04:08:27.901Z,98958.61
2018-08-24T04:10:56.523Z,98966.64
2018-08-24T04:13:25.171Z,98966.20
2018-08-24T04:15:53.858Z,98964.98
2018-08-24T04:18:24.160Z,98961.25
2018-08-24T04:21:00.131Z,98969.04
2018-08-24T04:23:28.836Z,98969.80
2018-08-24T04:25:57.459Z,98968.64
2018-08-24T04:28:25.913Z,98964.70
2018-08-24T04:30:54.481Z,98975.02
2018-08-24T04:33:22.988Z,98980.33
2018-08-24T04:35:51.506Z,98984.48
2018-08-24T04:38:20.053Z,98982.47
2018-08-24T04:40:48.840Z,98983.09
2018-08-24T04:43:17.594Z,98994.21
2018-08-24T04:45:47.622Z,98996.51
2018-08-24T04:48:16.173Z,98991.65
2018-08-24T04:50:44.680Z,98994.77
2018-08-24T04:53:13.232Z,98996.37
2018-08-24T04:55:41.800Z,98991.89
2018-08-24T04:58:10.380Z,98991.56
2018-08-24T05:00:38.905Z,98991.61
2018-08-24T05:03:07.467Z,98998.60
2018-08-24T05:05:36.458Z,99001.17
2018-08-24T05:08:05.961Z,99007.90
2018-08-24T05:10:34.612Z,99003.95
2018-08-24T05:13:03.222Z,99009.31
2018-08-24T05:15:31.814Z,99016.32
2018-08-24T05:18:00.373Z,99010.44
2018-08-24T05:20:28.897Z,99013.03
2018-08-24T05:22:57.487Z,99014.72
2018-08-24T05:25:26.022Z,99012.05
2018-08-24T05:27:54.914Z,99008.63
2018-08-24T05:30:23.616Z,99003.29
2018-08-24T05:32:52.300Z,99002.47
2018-08-24T05:35:21.158Z,99006.30
2018-08-24T05:37:49.708Z,99005.95
2018-08-24T05:40:18.215Z,99007.08
2018-08-24T05:42:47.480Z,99011.41
2018-08-24T05:45:16.012Z,99014.75
2018-08-24T05:47:44.571Z,99016.91
2018-08-24T05:50:13.122Z,99022.53
2018-08-24T05:52:41.688Z,99020.88
2018-08-24T05:55:10.237Z,99017.41
2018-08-24T05:57:38.790Z,99027.78
2018-08-24T06:00:07.328Z,99026.73
2018-08-24T06:02:36.745Z,99033.36
2018-08-24T06:05:05.313Z,99036.09
2018-08-24T06:07:33.882Z,99039.66
2018-08-24T06:10:02.465Z,99039.06
2018-08-24T06:12:32.089Z,99039.84
2018-08-24T06:15:00.592Z,99035.31
2018-08-24T06:17:34.384Z,99035.23
2018-08-24T06:20:02.909Z,99037.47
2018-08-24T06:22:32.060Z,99029.52
2018-08-24T06:25:00.580Z,99031.61
2018-08-24T06:27:29.136Z,99040.61
2018-08-24T06:29:57.690Z,99041.94
2018-08-24T06:32:29.655Z,99050.03
2018-08-24T06:34:58.224Z,99053.09
2018-08-24T06:37:26.753Z,99066.42
2018-08-24T06:39:55.301Z,99067.73
2018-08-24T06:42:23.813Z,99072.75
2018-08-24T06:44:52.357Z,99088.84
2018-08-24T06:47:20.943Z,99085.70
2018-08-24T06:49:49.441Z,99106.73
2018-08-24T06:52:17.970Z,99112.79
2018-08-24T06:54:46.606Z,99122.39
2018-08-24T06:57:15.164Z,99124.23
2018-08-24T06:59:43.857Z,99124.27
2018-08-24T07:02:12.352Z,99136.39
2018-08-24T07:04:40.915Z,99123.83
2018-08-24T07:09:43.630Z,99129.00
2018-08-24T07:12:13.370Z,99127.89
2018-08-24T07:14:42.670Z,99125.60
2018-08-24T07:17:11.208Z,99128.45
2018-08-24T07:19:40.237Z,99134.45
2018-08-24T07:22:08.860Z,99134.60
2018-08-24T07:24:39.995Z,99147.92
2018-08-24T07:27:08.759Z,99147.13
2018-08-24T07:29:37.345Z,99150.20
2018-08-24T07:32:05.937Z,99160.72
2018-08-24T07:34:34.514Z,99164.07
2018-08-24T07:37:03.076Z,99163.98
2018-08-24T07:39:32.394Z,99164.48
2018-08-24T07:42:01.051Z,99157.63
2018-08-24T07:44:29.662Z,99160.02
2018-08-24T07:46:58.220Z,99157.41
2018-08-24T07:49:31.340Z,99153.32
2018-08-24T07:51:59.941Z,99155.06
2018-08-24T07:54:35.401Z,99151.56
2018-08-24T07:57:04.518Z,99157.45
2018-08-24T07:59:33.098Z,99165.85
2018-08-24T08:02:02.409Z,99169.31
2018-08-24T08:04:30.968Z,99167.08
2018-08-24T08:07:00.797Z,99166.96
2018-08-24T08:09:29.357Z,99179.85
2018-08-24T08:11:59.899Z,99182.08
2018-08-24T08:14:28.797Z,99185.34
2018-08-24T08:17:01.852Z,99178.61
2018-08-24T08:19:31.448Z,99184.23
2018-08-24T08:22:00.917Z,99182.66
2018-08-24T08:24:30.504Z,99186.66
2018-08-24T08:26:59.140Z,99185.05
2018-08-24T08:29:32.982Z,99188.19
2018-08-24T08:32:01.564Z,99200.42
2018-08-24T08:34:30.213Z,99202.00
2018-08-24T08:36:58.762Z,99201.41
2018-08-24T08:39:27.394Z,99204.73
2018-08-24T08:41:56.032Z,99208.03
2018-08-24T08:44:24.849Z,99211.30
2018-08-24T08:46:53.432Z,99199.02
2018-08-24T08:49:22.022Z,99202.28
2018-08-24T08:51:50.592Z,99196.45
2018-08-24T08:54:19.186Z,99191.19
2018-08-24T08:56:47.817Z,99197.59
2018-08-24T08:59:16.413Z,99214.20
2018-08-24T09:01:45.022Z,99210.23
2018-08-24T09:04:13.594Z,99209.17
2018-08-24T09:06:42.190Z,99212.31
2018-08-24T09:09:11.179Z,99212.62
2018-08-24T09:11:40.049Z,99202.11
2018-08-24T09:14:08.792Z,99210.73
2018-08-24T09:16:37.461Z,99211.57
2018-08-24T09:19:11.172Z,99210.17
2018-08-24T09:21:44.988Z,99208.09
2018-08-24T09:24:18.773Z,99212.51
2018-08-24T09:26:52.521Z,99207.37
2018-08-24T09:29:26.764Z,99207.64
2018-08-24T09:31:56.278Z,99217.72
2018-08-24T09:34:25.053Z,99214.89
2018-08-24T09:36:53.637Z,99218.93
2018-08-24T09:39:29.265Z,99207.47
2018-08-24T09:42:00.059Z,99212.16
2018-08-24T09:44:28.651Z,99216.27
2018-08-24T09:47:02.309Z,99207.66
2018-08-24T09:49:33.205Z,99211.38
2018-08-24T09:52:05.971Z,99211.26
2018-08-24T09:54:34.537Z,99197.77
2018-08-24T09:57:03.389Z,99196.19
2018-08-24T09:59:31.957Z,99208.24
2018-08-24T10:02:06.073Z,99211.45
2018-08-24T10:04:39.813Z,99200.63
2018-08-24T10:07:13.780Z,99206.53
2018-08-24T10:09:43.732Z,99206.72
2018-08-24T10:12:12.456Z,99212.45
2018-08-24T10:14:41.001Z,99198.58
2018-08-24T10:17:09.557Z,99199.31
2018-08-24T10:19:38.129Z,99203.76
2018-08-24T10:22:06.784Z,99191.80
2018-08-24T10:24:41.638Z,99198.94
2018-08-24T10:27:10.425Z,99189.62
2018-08-24T10:29:39.044Z,99188.38
2018-08-24T10:32:07.571Z,99193.39
2018-08-24T10:34:36.182Z,99183.69
2018-08-24T10:37:04.887Z,99188.00
2018-08-24T10:39:33.424Z,99186.73
2018-08-24T10:42:01.990Z,99187.42
2018-08-24T10:44:30.567Z,99182.55
2018-08-24T10:46:59.153Z,99181.16
2018-08-24T10:49:27.761Z,99182.19
2018-08-24T10:51:56.311Z,99183.12
2018-08-24T10:54:24.885Z,99178.92
2018-08-24T10:56:53.471Z,99181.44
2018-08-24T10:59:22.116Z,99189.14
2018-08-24T11:01:50.664Z,99183.78
2018-08-24T11:04:19.222Z,99182.29
2018-08-24T11:06:47.746Z,99182.94
2018-08-24T11:09:16.305Z,99176.47
2018-08-24T11:11:44.828Z,99155.45
2018-08-24T11:14:13.386Z,99172.25
2018-08-24T11:16:41.978Z,99170.14
2018-08-24T11:19:10.524Z,99166.62
2018-08-24T11:21:39.089Z,99168.88
2018-08-24T11:24:07.709Z,99175.52
2018-08-24T11:26:36.233Z,99173.58
2018-08-24T11:29:05.222Z,99165.82
2018-08-24T11:31:34.353Z,99167.67
2018-08-24T11:34:03.034Z,99179.80
2018-08-24T11:36:31.509Z,99156.97
2018-08-24T11:39:00.078Z,99160.28
2018-08-24T11:41:28.620Z,99153.67
2018-08-24T11:43:57.232Z,99160.62
2018-08-24T11:46:26.429Z,99155.08
2018-08-24T11:48:55.020Z,99170.34
2018-08-24T11:51:23.558Z,99163.10
2018-08-24T11:53:52.154Z,99166.42
2018-08-24T11:56:20.716Z,99168.68
2018-08-24T11:58:50.305Z,99156.89
2018-08-24T12:01:19.675Z,99168.48
2018-08-24T12:03:48.229Z,99155.49
2018-08-24T12:06:16.749Z,99162.03
2018-08-24T12:08:45.695Z,99157.53
2018-08-24T12:11:14.220Z,99174.28
2018-08-24T12:13:43.038Z,99159.78
2018-08-24T12:16:12.185Z,99153.57
2018-08-24T12:18:40.814Z,99156.39
2018-08-24T12:21:09.415Z,99160.00
2018-08-24T12:23:37.962Z,99159.83
2018-08-24T12:26:06.764Z,99158.20
2018-08-24T12:28:38.141Z,99153.27
2018-08-24T12:31:07.879Z,99156.34
2018-08-24T12:33:36.386Z,99166.52
2018-08-24T12:36:09.733Z,99161.22
2018-08-24T12:38:38.281Z,99161.65
2018-08-24T12:41:06.883Z,99158.75
2018-08-24T12:43:35.478Z,99162.72
2018-08-24T12:46:05.063Z,99161.48
2018-08-24T12:48:33.608Z,99146.70
2018-08-24T12:51:05.126Z,99150.06
2018-08-24T12:53:33.765Z,99147.21
2018-08-24T12:56:02.317Z,99146.34
2018-08-24T12:58:30.848Z,99150.48
2018-08-24T13:01:06.148Z,99142.80
2018-08-24T13:03:34.852Z,99147.42
2018-08-24T13:06:03.778Z,99156.11
2018-08-24T13:08:32.454Z,99141.92
2018-08-24T13:11:01.537Z,99130.95
2018-08-24T13:13:30.074Z,99132.61
2018-08-24T13:15:58.733Z,99132.78
2018-08-24T13:18:27.336Z,99126.08
2018-08-24T13:20:55.993Z,99125.65
2018-08-24T13:23:24.539Z,99120.37
2018-08-24T13:25:53.375Z,99113.12
2018-08-24T13:28:21.969Z,99119.12
2018-08-24T13:30:50.733Z,99111.86
2018-08-24T13:33:19.269Z,99113.17
2018-08-24T13:35:47.865Z,99115.54
2018-08-24T13:38:16.806Z,99125.88
2018-08-24T13:40:45.381Z,99110.86
2018-08-24T13:43:18.417Z,99114.21
2018-08-24T13:45:47.001Z,99102.17
2018-08-24T13:48:15.559Z,99098.67
2018-08-24T13:50:44.176Z,99100.98
2018-08-24T13:53:13.117Z,99094.84
2018-08-24T13:55:41.733Z,99101.73
2018-08-24T13:58:15.588Z,99105.67
2018-08-24T14:00:49.463Z,99109.10
2018-08-24T14:03:18.280Z,99099.60
2018-08-24T14:05:47.732Z,99098.75
2018-08-24T14:08:16.592Z,99095.05
2018-08-24T14:10:45.166Z,99089.94
2018-08-24T14:13:13.729Z,99077.41
2018-08-24T14:15:42.559Z,99075.86
2018-08-24T14:18:18.090Z,99077.94
2018-08-24T14:20:46.840Z,99084.20
2018-08-24T14:23:15.396Z,99069.36
2018-08-24T14:25:44.059Z,99083.25
2018-08-24T14:28:12.517Z,99082.59
2018-08-24T14:30:41.094Z,99089.92
2018-08-24T14:33:09.646Z,99097.94
2018-08-24T14:35:38.372Z,99083.89
2018-08-24T14:38:07.055Z,99078.27
2018-08-24T14:40:36.305Z,99077.72
2018-08-24T14:43:05.854Z,99070.53
2018-08-24T14:45:34.797Z,99092.55
2018-08-24T14:48:04.292Z,99072.30
2018-08-24T14:50:33.842Z,99082.14
2018-08-24T14:53:03.044Z,99066.84
2018-08-24T14:55:31.657Z,99063.00
2018-08-24T14:58:01.490Z,99069.50
2018-08-24T15:00:30.217Z,99072.52
2018-08-24T15:02:58.790Z,99066.03
2018-08-24T15:05:27.457Z,99062.53
2018-08-24T15:07:57.782Z,99050.25
2018-08-24T15:10:26.376Z,99051.59
2018-08-24T15:13:03.969Z,99046.39
2018-08-24T15:15:33.313Z,99052.05
2018-08-24T15:18:02.553Z,99050.36
2018-08-24T15:20:31.200Z,99049.19
2018-08-24T15:23:00.141Z,99044.20
2018-08-24T15:25:28.881Z,99052.82
2018-08-24T15:27:57.513Z,99047.84
2018-08-24T15:30:26.047Z,99053.17
2018-08-24T15:32:54.626Z,99055.16
2018-08-24T15:35:23.381Z,99058.95
2018-08-24T15:37:54.059Z,99063.46
2018-08-24T15:40:25.873Z,99048.11
2018-08-24T15:42:54.901Z,99061.50
2018-08-24T15:45:23.561Z,99049.48
2018-08-24T15:47:52.253Z,99056.02
2018-08-24T15:50:20.920Z,99078.41
2018-08-24T15:52:49.705Z,99065.78
2018-08-24T15:55:18.790Z,99078.09
2018-08-24T15:57:47.398Z,99077.37
2018-08-24T16:00:16.048Z,99069.38
2018-08-24T16:02:44.835Z,99075.69
2018-08-24T16:05:13.356Z,99086.88
2018-08-24T16:07:41.902Z,99071.41
2018-08-24T16:10:10.528Z,99066.86
2018-08-24T16:12:39.225Z,99075.13
2018-08-24T16:15:09.685Z,99062.00
2018-08-24T16:17:38.316Z,99085.42
2018-08-24T16:20:06.889Z,99074.23
2018-08-24T16:22:35.806Z,99069.41
2018-08-24T16:25:05.425Z,99068.63
2018-08-24T16:27:34.777Z,99066.90
2018-08-24T16:30:03.363Z,99071.55
2018-08-24T16:32:32.116Z,99066.77
2018-08-24T16:35:01.106Z,99075.19
2018-08-24T16:37:30.548Z,99078.09
2018-08-24T16:39:59.292Z,99085.67
2018-08-24T16:42:28.004Z,99084.24
2018-08-24T16:44:56.823Z,99079.67
2018-08-24T16:47:27.246Z,99075.22
2018-08-24T16:49:57.886Z,99084.45
2018-08-24T16:52:26.796Z,99095.80
2018-08-24T16:54:55.549Z,99100.59
2018-08-24T16:57:24.113Z,99088.55
2018-08-24T16:59:52.631Z,99087.06
2018-08-24T17:02:21.226Z,99086.06
2018-08-24T17:04:57.001Z,99098.16
2018-08-24T17:07:25.971Z,99112.44
2018-08-24T17:09:55.805Z,99096.91
2018-08-24T17:12:24.570Z,99101.92
2018-08-24T17:14:55.065Z,99097.12
2018-08-24T17:17:29.888Z,99099.66
2018-08-24T17:20:03.921Z,99099.08
2018-08-24T17:22:33.326Z,99085.43
2018-08-24T17:25:03.676Z,99086.67
2018-08-24T17:27:32.408Z,99086.78
2018-08-24T17:30:01.074Z,99090.70
2018-08-24T17:32:32.680Z,99098.89
2018-08-24T17:35:01.347Z,99095.78
2018-08-24T17:37:50.326Z,99093.73
2018-08-24T17:40:18.895Z,99094.35
2018-08-24T17:42:47.409Z,99094.50
2018-08-24T17:45:15.986Z,99091.59
2018-08-24T17:47:44.935Z,99092.13
2018-08-24T17:50:13.880Z,99086.73
2018-08-24T17:52:42.628Z,99084.24
2018-08-24T17:55:11.285Z,99081.44
2018-08-24T17:57:43.114Z,99088.63
2018-08-24T18:00:12.069Z,99089.48
2018-08-24T18:02:40.624Z,99084.17
2018-08-24T18:05:09.405Z,99085.31
2018-08-24T18:07:37.956Z,99096.11
2018-08-24T18:10:06.939Z,99095.42
2018-08-24T18:12:35.515Z,99099.45
2018-08-24T18:15:04.205Z,99105.14
2018-08-24T18:17:33.469Z,99104.12
2018-08-24T18:20:02.062Z,99106.16
2018-08-24T18:22:40.136Z,99107.95
2018-08-24T18:25:12.625Z,99104.48
2018-08-24T18:27:41.225Z,99106.95
2018-08-24T18:30:10.258Z,99109.17
2018-08-24T18:32:42.699Z,99107.53
2018-08-24T18:35:13.300Z,99119.83
2018-08-24T18:37:43.699Z,99116.14
2018-08-24T18:40:14.124Z,99120.23
2018-08-24T18:42:46.661Z,99117.59
2018-08-24T18:45:15.228Z,99121.39
2018-08-24T18:47:47.706Z,99124.73
2018-08-24T18:50:18.185Z,99119.78
2018-08-24T18:52:48.156Z,99118.88
2018-08-24T18:55:18.922Z,99123.63
2018-08-24T18:57:48.773Z,99122.85
2018-08-24T19:00:20.334Z,99119.72
2018-08-24T19:02:49.003Z,99123.69
2018-08-24T19:05:17.630Z,99127.02
2018-08-24T19:07:52.134Z,99132.17
2018-08-24T19:10:22.601Z,99138.51
2018-08-24T19:12:56.799Z,99142.84
2018-08-24T19:15:25.646Z,99143.94
2018-08-24T19:18:01.433Z,99150.24
2018-08-24T19:20:36.697Z,99153.28
2018-08-24T19:23:08.724Z,99159.66
2018-08-24T19:25:37.391Z,99156.85
2018-08-24T19:28:11.569Z,99153.26
2018-08-24T19:30:42.865Z,99157.84
2018-08-24T19:33:11.551Z,99156.68
2018-08-24T19:35:43.020Z,99156.30
2018-08-24T19:38:12.174Z,99155.17
2018-08-24T19:40:46.480Z,99155.13
2018-08-24T19:43:16.897Z,99153.41
2018-08-24T19:45:45.692Z,99156.59
2018-08-24T19:48:19.561Z,99164.34
2018-08-24T19:50:48.103Z,99164.34
2018-08-24T19:53:16.615Z,99166.70
2018-08-24T19:55:45.216Z,99162.36
2018-08-24T19:58:19.006Z,99169.84
2018-08-24T20:00:47.670Z,99170.56
2018-08-24T20:03:16.212Z,99160.58
2018-08-24T20:07:53.517Z,99159.15
2018-08-24T20:10:22.113Z,99160.67
2018-08-24T20:12:50.685Z,99163.84
2018-08-24T20:15:29.502Z,99164.45
2018-08-24T20:17:58.610Z,99164.47
2018-08-24T20:20:27.139Z,99167.83
2018-08-24T20:22:55.693Z,99163.55
2018-08-24T20:25:28.543Z,99169.21
2018-08-24T20:27:57.245Z,99167.32
2018-08-24T20:30:25.902Z,99159.24
2018-08-24T20:32:54.665Z,99159.58
2018-08-24T20:35:23.205Z,99156.70
2018-08-24T20:37:51.772Z,99164.38
2018-08-24T20:40:25.489Z,99161.49
2018-08-24T20:42:57.803Z,99159.86
2018-08-24T20:45:26.430Z,99158.31
2018-08-24T20:47:57.085Z,99157.41
2018-08-24T20:50:28.952Z,99153.66
2018-08-24T20:52:59.757Z,99154.45
2018-08-24T20:55:28.450Z,99150.99
2018-08-24T20:57:57.235Z,99151.42
2018-08-24T21:00:25.857Z,99144.18
2018-08-24T21:02:54.464Z,99148.97
2018-08-24T21:05:23.080Z,99150.11
2018-08-24T21:07:51.997Z,99150.93
2018-08-24T21:10:22.180Z,99150.22
2018-08-24T21:12:50.933Z,99154.92
2018-08-24T21:15:19.472Z,99149.48
2018-08-24T21:17:48.038Z,99142.30
2018-08-24T21:20:16.572Z,99140.47
2018-08-24T21:22:45.127Z,99143.12
2018-08-24T21:25:14.176Z,99146.71
2018-08-24T21:27:43.262Z,99140.84
2018-08-24T21:30:12.150Z,99145.98
2018-08-24T21:32:42.872Z,99143.24
2018-08-24T21:35:12.052Z,99149.36
2018-08-24T21:37:51.450Z,99138.83
2018-08-24T21:40:24.410Z,99145.77
2018-08-24T21:42:53.068Z,99138.70
2018-08-24T21:45:24.804Z,99135.03
2018-08-24T21:47:56.824Z,99145.84
2018-08-24T21:50:27.635Z,99144.91
2018-08-24T21:52:58.368Z,99144.56
2018-08-24T21:55:29.266Z,99144.80
2018-08-24T21:58:02.259Z,99142.90
2018-08-24T22:00:32.876Z,99144.12
2018-08-24T22:03:02.002Z,99134.22
2018-08-24T22:05:35.900Z,99126.97
2018-08-24T22:08:07.376Z,99126.52
2018-08-24T22:10:36.789Z,99124.11
2018-08-24T22:13:06.332Z,99122.09
2018-08-24T22:15:34.848Z,99131.10
2018-08-24T22:18:03.664Z,99133.16
2018-08-24T22:20:32.182Z,99132.28
2018-08-24T22:23:02.401Z,99135.05
2018-08-24T22:25:30.947Z,99132.66
2018-08-24T22:28:00.656Z,99125.09
2018-08-24T22:30:29.196Z,99119.44
2018-08-24T22:33:00.337Z,99114.95
2018-08-24T22:35:31.653Z,99119.76
2018-08-24T22:38:01.048Z,99118.73
2018-08-24T22:40:32.847Z,99115.88
2018-08-24T22:43:02.454Z,99116.01
2018-08-24T22:45:33.610Z,99114.23
2018-08-24T22:48:03.572Z,99119.42
2018-08-24T22:50:34.310Z,99123.63
2018-08-24T22:53:03.261Z,99123.05
2018-08-24T22:55:33.278Z,99115.50
2018-08-24T22:58:03.760Z,99114.30
2018-08-24T23:00:35.180Z,99109.76
2018-08-24T23:03:06.109Z,99110.08
2018-08-24T23:05:37.336Z,99105.11
2018-08-24T23:08:11.447Z,99102.70
2018-08-24T23:10:41.955Z,99101.20
2018-08-24T23:13:10.692Z,99094.27
2018-08-24T23:15:41.452Z,99100.45
2018-08-24T23:18:09.977Z,99096.80
2018-08-24T23:20:38.510Z,99086.96
2018-08-24T23:23:07.023Z,99091.83
2018-08-24T23:25:35.572Z,99086.71
2018-08-24T23:28:04.101Z,99086.47
2018-08-24T23:30:32.647Z,99092.83
2018-08-24T23:33:01.164Z,99090.27
2018-08-24T23:35:29.717Z,99088.82
2018-08-24T23:37:58.232Z,99082.71
2018-08-24T23:40:26.773Z,99078.25
2018-08-24T23:42:55.346Z,99081.52
2018-08-24T23:45:24.120Z,99074.91
2018-08-24T23:47:52.633Z,99072.34
2018-08-24T23:50:21.145Z,99069.21
2018-08-24T23:52:49.705Z,99070.74
2018-08-24T23:55:18.279Z,99075.97
2018-08-24T23:57:46.840Z,99071.81
